createdAt,value
2019-04-14T07:21:30.940Z,35.78
2019-04-14T07:24:06.557Z,38.34
2019-04-14T07:26:43.286Z,40.75
2019-04-14T07:29:16.744Z,42.91
2019-04-14T07:32:14.141Z,44.25
2019-04-14T07:35:05.969Z,46.05
2019-04-14T07:37:54.674Z,47.28
2019-04-14T07:40:52.323Z,48.90
2019-04-14T07:43:50.222Z,49.82
2019-04-14T07:46:49.334Z,50.84
2019-04-14T07:49:57.740Z,52.65
2019-04-14T07:52:57.331Z,52.97
2019-04-14T07:55:38.881Z,54.30
2019-04-14T07:58:25.037Z,54.94
2019-04-14T08:01:06.858Z,55.46
2019-04-14T08:03:58.960Z,57.06
2019-04-14T08:06:33.191Z,57.31
2019-04-14T08:09:08.642Z,58.68
2019-04-14T08:11:41.811Z,59.21
2019-04-14T08:14:17.358Z,59.79
2019-04-14T08:16:54.128Z,59.87
2019-04-14T08:19:27.740Z,60.70
2019-04-14T08:22:06.905Z,61.00
2019-04-14T08:24:40.190Z,62.02
2019-04-14T08:27:16.382Z,62.58
2019-04-14T08:29:50.696Z,49.68
2019-04-14T08:32:23.930Z,49.46
2019-04-14T08:34:57.241Z,51.02
2019-04-14T08:37:30.466Z,52.42
2019-04-14T08:40:03.728Z,53.64
2019-04-14T08:43:03.241Z,54.69
2019-04-14T08:45:46.265Z,55.67
2019-04-14T08:48:31.869Z,56.18
2019-04-14T08:51:17.471Z,56.79
2019-04-14T08:54:04.169Z,57.38
2019-04-14T08:57:11.194Z,58.35
2019-04-14T09:00:06.843Z,58.37
2019-04-14T09:02:55.480Z,57.20
2019-04-14T09:05:48.613Z,57.88
2019-04-14T09:08:29.487Z,58.14
2019-04-14T09:11:10.981Z,56.77
2019-04-14T09:13:44.455Z,55.74
2019-04-14T09:16:19.032Z,57.14
2019-04-14T09:19:07.120Z,55.32
2019-04-14T09:21:31.541Z,55.87
2019-04-14T09:24:06.902Z,56.28
2019-04-14T09:26:48.287Z,55.75
2019-04-14T09:29:23.599Z,55.42
2019-04-14T09:31:57.231Z,54.75
2019-04-14T09:34:31.964Z,54.48
2019-04-14T09:37:15.146Z,54.83
2019-04-14T09:39:48.412Z,53.71
2019-04-14T09:42:24.980Z,52.93
2019-04-14T09:44:58.233Z,52.82
2019-04-14T09:47:31.589Z,51.62
2019-04-14T09:50:06.815Z,51.02
2019-04-14T09:52:40.033Z,51.22
2019-04-14T09:55:15.063Z,51.61
2019-04-14T09:57:48.295Z,50.78
2019-04-14T10:00:39.863Z,52.97
2019-04-14T10:03:17.271Z,48.04
2019-04-14T10:05:53.395Z,48.50
2019-04-14T10:08:27.029Z,47.59
2019-04-14T10:11:00.127Z,47.61
2019-04-14T10:13:33.518Z,46.83
2019-04-14T10:16:06.726Z,46.04
2019-04-14T10:18:39.804Z,47.13
2019-04-14T10:21:17.698Z,47.11
2019-04-14T10:23:48.755Z,46.51
2019-04-14T10:26:22.421Z,44.90
2019-04-14T10:28:55.577Z,46.53
2019-04-14T10:31:29.847Z,45.62
2019-04-14T10:34:03.620Z,45.81
2019-04-14T10:36:36.870Z,45.06
2019-04-14T10:39:13.258Z,45.10
2019-04-14T10:41:54.136Z,45.73
2019-04-14T10:44:27.530Z,45.61
2019-04-14T10:47:00.736Z,45.26
2019-04-14T10:49:34.013Z,40.86
2019-04-14T10:52:11.000Z,40.83
2019-04-14T10:54:47.839Z,39.08
2019-04-14T10:57:22.574Z,41.64
2019-04-14T11:00:00.983Z,39.46
2019-04-14T11:02:42.768Z,39.71
2019-04-14T11:05:17.486Z,38.46
2019-04-14T11:08:02.029Z,38.24
2019-04-14T11:10:42.198Z,38.11
2019-04-14T11:13:18.033Z,36.50
2019-04-14T11:15:52.425Z,37.06
2019-04-14T11:18:28.965Z,36.55
2019-04-14T11:21:07.472Z,37.15
2019-04-14T11:23:42.667Z,35.87
2019-04-14T11:26:20.560Z,36.48
2019-04-14T11:28:56.741Z,36.66
2019-04-14T11:32:03.683Z,36.92
2019-04-14T11:34:55.613Z,37.55
2019-04-14T11:37:43.874Z,36.49
2019-04-14T11:40:19.537Z,36.78
2019-04-14T11:42:57.648Z,35.82
2019-04-14T11:45:34.115Z,35.48
2019-04-14T11:48:07.390Z,34.52
2019-04-14T11:50:43.673Z,34.84
2019-04-14T11:53:19.325Z,34.45
2019-04-14T11:55:52.630Z,34.67
2019-04-14T11:58:29.142Z,34.10
2019-04-14T12:01:31.120Z,33.28
2019-04-14T12:04:23.954Z,34.29
2019-04-14T12:07:30.242Z,32.61
2019-04-14T12:10:17.331Z,33.63
2019-04-14T12:12:51.284Z,33.32
2019-04-14T12:15:25.658Z,33.28
2019-04-14T12:17:59.303Z,33.24
2019-04-14T12:20:33.278Z,32.35
2019-04-14T12:23:12.458Z,32.55
2019-04-14T12:25:46.457Z,32.81
2019-04-14T12:28:21.857Z,32.61
2019-04-14T12:30:55.471Z,32.37
2019-04-14T12:33:28.580Z,32.78
2019-04-14T12:36:01.729Z,33.13
2019-04-14T12:38:34.862Z,32.27
2019-04-14T12:41:10.536Z,33.40
2019-04-14T12:44:11.807Z,34.54
2019-04-14T12:47:03.161Z,33.14
2019-04-14T12:49:40.265Z,33.01
2019-04-14T12:52:21.537Z,33.04
2019-04-14T12:54:59.090Z,32.54
2019-04-14T12:57:39.967Z,32.57
2019-04-14T13:00:20.342Z,32.14
2019-04-14T13:02:53.634Z,32.59
2019-04-14T13:05:26.691Z,32.13
2019-04-14T13:07:59.781Z,31.08
2019-04-14T13:10:32.907Z,32.10
2019-04-14T13:13:06.144Z,31.08
2019-04-14T13:15:39.406Z,31.86
2019-04-14T13:18:15.376Z,32.03
2019-04-14T13:20:48.558Z,31.38
2019-04-14T13:23:21.700Z,32.54
2019-04-14T13:25:55.288Z,31.26
2019-04-14T13:28:28.480Z,32.39
2019-04-14T13:31:01.606Z,29.79
2019-04-14T13:33:35.543Z,30.41
2019-04-14T13:36:08.597Z,29.85
2019-04-14T13:38:41.649Z,30.68
2019-04-14T13:41:14.729Z,30.64
2019-04-14T13:43:47.763Z,30.81
2019-04-14T13:46:21.567Z,31.45
2019-04-14T13:48:55.493Z,30.60
2019-04-14T13:51:28.602Z,30.38
2019-04-14T13:54:06.761Z,30.07
2019-04-14T13:56:40.897Z,30.00
2019-04-14T13:59:15.296Z,29.32
2019-04-14T14:01:48.416Z,29.87
2019-04-14T14:04:22.955Z,29.76
2019-04-14T14:07:05.628Z,29.33
2019-04-14T14:09:41.603Z,28.98
2019-04-14T14:12:37.164Z,29.83
2019-04-14T14:15:34.666Z,29.83
2019-04-14T14:18:22.700Z,29.28
2019-04-14T14:21:18.381Z,29.03
2019-04-14T14:24:10.158Z,29.45
2019-04-14T14:26:43.916Z,29.69
2019-04-14T14:29:23.339Z,29.19
2019-04-14T14:31:57.415Z,29.08
2019-04-14T14:34:39.778Z,29.74
2019-04-14T14:37:12.902Z,29.78
2019-04-14T14:39:46.584Z,28.82
2019-04-14T14:42:22.222Z,28.25
2019-04-14T14:45:38.183Z,29.68
2019-04-14T14:48:26.870Z,29.49
2019-04-14T14:51:29.364Z,28.53
2019-04-14T14:54:02.401Z,28.94
2019-04-14T14:56:35.985Z,28.71
2019-04-14T14:59:10.378Z,28.92
2019-04-14T15:01:46.470Z,28.93
2019-04-14T15:04:20.080Z,29.00
2019-04-14T15:06:53.357Z,29.21
2019-04-14T15:09:30.866Z,28.93
2019-04-14T15:12:05.868Z,29.32
2019-04-14T15:15:17.262Z,29.46
2019-04-14T15:17:52.254Z,29.60
2019-04-14T15:20:26.510Z,28.81
2019-04-14T15:23:01.408Z,29.18
2019-04-14T15:25:37.299Z,29.49
2019-04-14T15:28:12.306Z,28.89
2019-04-14T15:30:45.605Z,29.49
2019-04-14T15:33:18.903Z,29.79
2019-04-14T15:35:52.217Z,29.86
2019-04-14T15:38:26.906Z,29.28
2019-04-14T15:41:01.264Z,29.22
2019-04-14T15:43:36.870Z,29.88
2019-04-14T15:46:10.634Z,30.19
2019-04-14T15:48:44.010Z,29.86
2019-04-14T15:51:17.352Z,30.06
2019-04-14T15:53:50.711Z,29.24
2019-04-14T15:56:48.688Z,29.11
2019-04-14T15:59:41.699Z,29.00
2019-04-14T16:02:41.509Z,28.63
2019-04-14T16:05:29.107Z,28.63
2019-04-14T16:08:21.114Z,29.22
2019-04-14T16:10:59.784Z,28.35
2019-04-14T16:13:54.810Z,29.58
2019-04-14T16:16:50.387Z,28.96
2019-04-14T16:19:47.127Z,29.50
2019-04-14T16:22:24.382Z,28.77
2019-04-14T16:24:57.675Z,28.64
2019-04-14T16:27:49.611Z,28.67
2019-04-14T16:30:35.184Z,29.34
2019-04-14T16:33:24.637Z,29.95
2019-04-14T16:35:59.922Z,30.01
2019-04-14T16:38:35.181Z,29.94
2019-04-14T16:41:12.798Z,29.46
2019-04-14T16:43:46.160Z,29.58
2019-04-14T16:46:20.507Z,29.52
2019-04-14T16:48:57.096Z,29.48
2019-04-14T16:51:35.001Z,29.59
2019-04-14T16:54:19.142Z,29.30
2019-04-14T16:57:06.550Z,29.55
2019-04-14T16:59:42.890Z,29.17
2019-04-14T17:02:21.734Z,29.97
2019-04-14T17:04:56.534Z,28.87
2019-04-14T17:07:31.285Z,29.43
2019-04-14T17:10:04.585Z,29.17
2019-04-14T17:13:00.823Z,29.42
2019-04-14T17:16:29.099Z,29.83
2019-04-14T17:19:57.211Z,29.57
2019-04-14T17:22:47.203Z,29.69
2019-04-14T17:25:28.046Z,29.93
2019-04-14T17:28:25.769Z,29.99
2019-04-14T17:31:08.781Z,30.07
2019-04-14T17:33:48.214Z,30.11
2019-04-14T17:36:32.478Z,30.18
2019-04-14T17:39:31.786Z,30.26
2019-04-14T17:42:26.486Z,30.53
2019-04-14T17:45:18.396Z,31.09
2019-04-14T17:48:10.395Z,30.91
2019-04-14T17:50:58.161Z,31.17
2019-04-14T17:54:00.437Z,31.43
2019-04-14T17:56:55.774Z,31.60
2019-04-14T17:59:42.841Z,32.26
2019-04-14T18:02:27.517Z,32.10
2019-04-14T18:05:12.789Z,32.49
2019-04-14T18:07:58.984Z,32.76
2019-04-14T18:10:41.877Z,33.46
2019-04-14T18:13:31.031Z,33.59
2019-04-14T18:16:22.662Z,33.85
2019-04-14T18:19:12.460Z,34.02
2019-04-14T18:21:45.673Z,34.10
2019-04-14T18:24:19.107Z,34.21
2019-04-14T18:26:52.193Z,34.19
2019-04-14T18:29:45.070Z,34.44
2019-04-14T18:32:32.186Z,34.61
2019-04-14T18:35:23.247Z,34.59
2019-04-14T18:38:26.445Z,34.77
2019-04-14T18:41:19.832Z,34.86
2019-04-14T18:44:11.774Z,35.06
2019-04-14T18:46:53.840Z,35.18
2019-04-14T18:49:48.821Z,35.34
2019-04-14T18:52:39.926Z,35.66
2019-04-14T18:55:28.074Z,35.59
2019-04-14T18:58:17.776Z,35.92
2019-04-14T19:00:56.525Z,35.83
2019-04-14T19:03:30.064Z,35.98
2019-04-14T19:06:15.168Z,36.28
2019-04-14T19:08:46.334Z,36.70
2019-04-14T19:11:37.442Z,36.38
2019-04-14T19:14:11.534Z,36.50
2019-04-14T19:16:48.065Z,36.63
2019-04-14T19:20:01.808Z,36.82
2019-04-14T19:23:02.359Z,36.74
2019-04-14T19:26:06.822Z,36.77
2019-04-14T19:28:50.065Z,37.15
2019-04-14T19:31:26.651Z,37.16
2019-04-14T19:34:00.009Z,37.34
2019-04-14T19:36:37.243Z,37.33
2019-04-14T19:39:14.537Z,37.64
2019-04-14T19:41:47.986Z,37.54
2019-04-14T19:44:21.382Z,37.71
2019-04-14T19:46:54.683Z,37.96
2019-04-14T19:49:28.072Z,38.03
2019-04-14T19:52:04.266Z,38.22
2019-04-14T19:54:42.014Z,38.19
2019-04-14T19:57:15.235Z,38.45
2019-04-14T19:59:48.475Z,38.56
2019-04-14T20:02:25.035Z,38.44
2019-04-14T20:05:00.904Z,38.68
2019-04-14T20:07:35.775Z,38.94
2019-04-14T20:10:15.788Z,39.27
2019-04-14T20:12:45.214Z,39.50
2019-04-14T20:15:30.294Z,39.29
2019-04-14T20:18:11.437Z,39.57
2019-04-14T20:21:04.811Z,39.88
2019-04-14T20:23:57.336Z,40.59
2019-04-14T20:26:56.151Z,40.92
2019-04-14T20:29:39.358Z,41.23
2019-04-14T20:32:23.712Z,41.80
2019-04-14T20:34:57.463Z,42.00
2019-04-14T20:37:32.381Z,42.64
2019-04-14T20:40:06.942Z,42.75
2019-04-14T20:42:41.775Z,42.79
2019-04-14T20:45:17.155Z,42.96
2019-04-14T20:47:54.796Z,43.04
2019-04-14T20:50:31.120Z,43.10
2019-04-14T20:53:07.878Z,43.62
2019-04-14T20:55:47.182Z,43.67
2019-04-14T20:58:19.544Z,43.88
2019-04-14T21:01:00.312Z,44.59
2019-04-14T21:03:43.824Z,44.21
2019-04-14T21:06:30.266Z,45.00
2019-04-14T21:09:30.985Z,45.04
2019-04-14T21:12:19.235Z,45.13
2019-04-14T21:15:16.351Z,45.14
2019-04-14T21:18:06.473Z,45.21
2019-04-14T21:20:55.631Z,45.26
2019-04-14T21:23:52.881Z,45.21
2019-04-14T21:26:36.208Z,45.78
2019-04-14T21:29:30.444Z,46.24
2019-04-14T21:32:22.923Z,46.11
2019-04-14T21:35:09.151Z,46.24
2019-04-14T21:37:57.981Z,46.36
2019-04-14T21:40:50.959Z,46.50
2019-04-14T21:43:22.946Z,46.74
2019-04-14T21:45:59.920Z,46.81
2019-04-14T21:48:38.161Z,47.20
2019-04-14T21:51:11.770Z,47.12
2019-04-14T21:53:46.793Z,47.19
2019-04-14T21:56:33.701Z,47.77
2019-04-14T21:59:21.663Z,47.72
2019-04-14T22:02:15.235Z,47.98
2019-04-14T22:05:13.603Z,48.07
2019-04-14T22:08:15.454Z,48.55
2019-04-14T22:10:54.801Z,48.53
2019-04-14T22:13:33.783Z,48.58
2019-04-14T22:16:08.903Z,48.56
2019-04-14T22:18:47.005Z,48.73
2019-04-14T22:21:20.945Z,48.43
2019-04-14T22:24:01.826Z,48.98
2019-04-14T22:26:37.628Z,49.43
2019-04-14T22:29:10.867Z,49.55
2019-04-14T22:31:48.989Z,49.61
2019-04-14T22:34:22.261Z,49.25
2019-04-14T22:36:55.448Z,50.04
2019-04-14T22:39:40.217Z,49.77
2019-04-14T22:42:07.576Z,49.99
2019-04-14T22:44:43.063Z,50.24
2019-04-14T22:47:20.296Z,50.44
2019-04-14T22:49:55.307Z,50.31
2019-04-14T22:52:28.534Z,50.38
2019-04-14T22:55:05.748Z,50.32
2019-04-14T22:57:39.054Z,50.80
2019-04-14T23:00:22.421Z,50.64
2019-04-14T23:03:07.813Z,50.98
2019-04-14T23:06:07.396Z,51.33
2019-04-14T23:08:45.352Z,51.39
2019-04-14T23:11:37.544Z,51.41
2019-04-14T23:14:17.760Z,51.76
2019-04-14T23:17:21.514Z,51.42
2019-04-14T23:20:23.146Z,51.55
2019-04-14T23:23:18.267Z,52.07
2019-04-14T23:26:02.540Z,52.32
2019-04-14T23:28:32.485Z,52.50
2019-04-14T23:31:05.849Z,52.60
2019-04-14T23:33:41.457Z,52.56
2019-04-14T23:36:24.676Z,52.64
2019-04-14T23:38:57.896Z,52.80
2019-04-14T23:41:31.141Z,53.12
2019-04-14T23:44:05.835Z,53.29
2019-04-14T23:46:39.000Z,53.62
2019-04-14T23:49:12.663Z,53.56
2019-04-14T23:51:45.910Z,53.37
2019-04-14T23:54:20.429Z,53.78
2019-04-14T23:57:04.695Z,53.92
2019-04-14T23:59:28.633Z,54.06
